»·PEaware :: N463PA KPSP-KIFP

N463PA :: KPSP-KIFP

FLIGHT INFORMATION

Flight Status: Arrived
Operator: Privately registered:
United States
More flights under this callsign
Pilot: Vinicius U. (17612)
Aircraft: PIPER PA-44 SEMINOLE
(PA44)
More flights by this aircraft type
Origin: KPSP Palm Springs Intl
United States
Destination: KIFP Laughlin/Bullhead Intl
United States
More flights between these airports :: More routes between these airports
Route: +CATH1 PSP V370 TNP V538 ZELMA V442 CLIPP
File this flight plan on PilotEdge
Remarks:
Altitude:
(Current/Filed)
F130
Speed:
(Current/Filed)
140kts
Departed: 24-Dec-17 01:10 PM
Arrived: 24-Dec-17 02:19 PM
Distance/Time
Traveled:
125nm/1:08
Distance/Time
To Go:
Arrived

Flight Plot

Page will automatically refresh every two minutes.

Flight plan parsing failed; only flown route is shown


Map Options




Map Legend


Flown Route
Filed Route
Departure Airport
Arrival Airport
Navaid (VOR, NDB)
Fix

Horizontal Profiles

Position Reports

Time Latitude Longitude Heading Altitude Ground
Speed
24-Dec-17 12:44 33.823399 -116.497046 53 480ft 0kts
24-Dec-17 12:45 33.823399 -116.497046 53 480ft 0kts
24-Dec-17 12:46 33.823399 -116.497046 53 480ft 0kts
24-Dec-17 12:47 33.823399 -116.497046 53 480ft 0kts
24-Dec-17 12:48 33.823399 -116.497046 53 480ft 0kts
24-Dec-17 12:49 33.823399 -116.497046 53 480ft 0kts
24-Dec-17 12:50 33.823399 -116.497046 53 480ft 0kts
24-Dec-17 12:51 33.823399 -116.497046 53 480ft 0kts
24-Dec-17 12:52 33.823399 -116.497046 53 480ft 0kts
24-Dec-17 12:53 33.823399 -116.497046 53 480ft 0kts
24-Dec-17 12:54 33.823399 -116.497046 53 480ft 0kts
24-Dec-17 12:55 33.823399 -116.497046 53 480ft 0kts
24-Dec-17 12:56 33.823399 -116.497046 53 480ft 0kts
24-Dec-17 12:57 33.823399 -116.497046 53 480ft 0kts
24-Dec-17 12:58 33.823399 -116.497046 53 480ft 0kts
24-Dec-17 12:59 33.823399 -116.497046 53 480ft 0kts
24-Dec-17 13:00 33.823399 -116.497046 53 480ft 0kts
24-Dec-17 13:01 33.823399 -116.497046 53 480ft 0kts
24-Dec-17 13:02 33.823399 -116.497046 53 480ft 0kts
24-Dec-17 13:03 33.823399 -116.497046 53 480ft 0kts
24-Dec-17 13:04 33.823399 -116.497046 53 480ft 0kts
24-Dec-17 13:05 33.823399 -116.497046 53 480ft 0kts
24-Dec-17 13:06 33.823399 -116.497045 53 480ft 0kts
24-Dec-17 13:07 33.823400 -116.497044 53 480ft 0kts
24-Dec-17 13:08 33.824609 -116.499005 317 480ft 13kts
24-Dec-17 13:09 33.824642 -116.499571 230 480ft 0kts
24-Dec-17 13:10 33.824642 -116.499572 230 480ft 0kts
24-Dec-17 13:11 33.824641 -116.499573 230 480ft 0kts
24-Dec-17 13:12 33.824638 -116.499577 230 480ft 0kts
24-Dec-17 13:13 33.824637 -116.499579 230 480ft 0kts
24-Dec-17 13:14 33.824636 -116.499580 230 480ft 0kts
24-Dec-17 13:15 33.824716 -116.500365 326 480ft 5kts
24-Dec-17 13:16 33.842520 -116.515171 331 1135ft 100kts
24-Dec-17 13:17 33.863662 -116.532596 325 1937ft 115kts
24-Dec-17 13:18 33.889691 -116.554631 317 2896ft 114kts
24-Dec-17 13:19 33.914680 -116.551504 85 3572ft 118kts
24-Dec-17 13:20 33.902547 -116.516019 114 4481ft 120kts
24-Dec-17 13:21 33.889085 -116.479763 114 5346ft 113kts
24-Dec-17 13:22 33.875737 -116.444637 109 6149ft 116kts
24-Dec-17 13:23 33.863045 -116.408179 93 6793ft 123kts
24-Dec-17 13:24 33.875100 -116.371533 65 7465ft 121kts
24-Dec-17 13:25 33.888635 -116.335528 59 8210ft 114kts
24-Dec-17 13:26 33.902321 -116.300508 68 8805ft 117kts
24-Dec-17 13:27 33.918766 -116.266486 55 9368ft 115kts
24-Dec-17 13:28 33.934818 -116.232915 60 9880ft 116kts
24-Dec-17 13:29 33.949769 -116.198671 65 10552ft 114kts
24-Dec-17 13:30 33.963303 -116.164643 59 11192ft 115kts
24-Dec-17 13:31 33.977534 -116.130298 66 11812ft 113kts
24-Dec-17 13:32 33.989861 -116.094091 66 12334ft 117kts
24-Dec-17 13:33 34.001045 -116.057213 67 12894ft 116kts
24-Dec-17 13:34 34.013933 -116.019556 66 13103ft 137kts
24-Dec-17 13:35 34.031357 -115.975300 61 13016ft 149kts
24-Dec-17 13:36 34.051523 -115.931503 61 13017ft 149kts
24-Dec-17 13:37 34.069771 -115.886874 65 13013ft 149kts
24-Dec-17 13:38 34.085745 -115.840767 65 13015ft 148kts
24-Dec-17 13:39 34.101729 -115.795215 63 13016ft 146kts
24-Dec-17 13:40 34.122524 -115.753611 35 13022ft 145kts
24-Dec-17 13:41 34.155453 -115.726307 46 13034ft 144kts
24-Dec-17 13:42 34.182759 -115.690890 46 13034ft 144kts
24-Dec-17 13:43 34.212661 -115.657871 40 13035ft 146kts
24-Dec-17 13:44 34.243282 -115.625200 39 13037ft 147kts
24-Dec-17 13:45 34.273653 -115.592158 40 13039ft 146kts
24-Dec-17 13:46 34.303907 -115.559171 40 13033ft 147kts
24-Dec-17 13:47 34.335540 -115.527964 27 13037ft 147kts
24-Dec-17 13:48 34.371746 -115.502715 23 13048ft 151kts
24-Dec-17 13:49 34.410161 -115.481289 20 13047ft 152kts
24-Dec-17 13:50 34.449456 -115.461486 20 13048ft 153kts
24-Dec-17 13:51 34.489089 -115.441714 20 13048ft 153kts
24-Dec-17 13:52 34.528763 -115.422479 19 13042ft 153kts
24-Dec-17 13:53 34.568621 -115.403797 16 13043ft 154kts
24-Dec-17 13:54 34.609550 -115.387847 16 13044ft 154kts
24-Dec-17 13:55 34.650639 -115.372062 16 13043ft 155kts
24-Dec-17 13:56 34.691978 -115.356069 16 13047ft 155kts
24-Dec-17 13:57 34.724905 -115.326473 60 13069ft 154kts
24-Dec-17 13:58 34.744515 -115.280618 61 13070ft 152kts
24-Dec-17 13:59 34.764091 -115.235056 61 13069ft 151kts
24-Dec-17 14:00 34.783478 -115.189669 61 13068ft 151kts
24-Dec-17 14:01 34.803022 -115.144116 61 13067ft 152kts
24-Dec-17 14:02 34.822789 -115.098162 61 13068ft 153kts
24-Dec-17 14:03 34.842475 -115.052079 61 13070ft 153kts
24-Dec-17 14:04 34.861475 -115.005659 61 13071ft 153kts
24-Dec-17 14:05 34.880276 -114.959362 61 13070ft 151kts
24-Dec-17 14:06 34.899974 -114.912072 59 12687ft 169kts
24-Dec-17 14:07 34.922005 -114.860914 57 12120ft 176kts
24-Dec-17 14:08 34.947770 -114.809535 56 11388ft 179kts
24-Dec-17 14:09 34.974270 -114.758726 54 10646ft 175kts
24-Dec-17 14:10 35.003159 -114.710116 52 9794ft 181kts
24-Dec-17 14:11 35.034267 -114.662792 50 9013ft 178kts
24-Dec-17 14:12 35.068027 -114.616494 46 7975ft 186kts
24-Dec-17 14:13 35.107824 -114.576469 15 6943ft 187kts
24-Dec-17 14:14 35.142347 -114.606136 268 6107ft 172kts
24-Dec-17 14:15 35.107038 -114.640206 201 5164ft 166kts
24-Dec-17 14:16 35.088026 -114.679020 299 4458ft 153kts
24-Dec-17 14:17 35.124120 -114.693139 28 3735ft 149kts
24-Dec-17 14:18 35.136340 -114.650814 135 2912ft 152kts
24-Dec-17 14:19 35.098123 -114.653033 193 2527ft 129kts
24-Dec-17 14:20 35.074103 -114.639495 93 2067ft 108kts
24-Dec-17 14:21 35.076113 -114.605530 76 1788ft 94kts
24-Dec-17 14:22 35.087580 -114.576201 50 1648ft 99kts
24-Dec-17 14:23 35.110265 -114.559642 10 1477ft 96kts
24-Dec-17 14:24 35.136877 -114.558142 356 941ft 92kts
24-Dec-17 14:25 35.153715 -114.558826 75 698ft 13kts
24-Dec-17 14:26 35.153751 -114.558537 90 698ft 0kts
24-Dec-17 14:27 35.153772 -114.558284 64 698ft 10kts
24-Dec-17 14:28 35.157906 -114.556678 85 698ft 16kts
24-Dec-17 14:29 35.157965 -114.555761 85 698ft 0kts
24-Dec-17 14:30 35.157965 -114.555761 85 698ft 0kts
24-Dec-17 14:31 35.157965 -114.555761 85 698ft 0kts
24-Dec-17 14:32 35.157965 -114.555761 85 698ft 0kts
24-Dec-17 14:33 35.157965 -114.555761 85 698ft 0kts

Navigation Log

Ident Type
Flight plan parsing failed, navigation log unavailable